Kansai, Japan

2:46 AM JST on August 21, 2014 (GMT +0900)
Kansai International | Change Station
CLOSE
Current Station
Airport
Location: Kansai,
Elevation: 26 ft
Nearby Weather Stations

Elev 26 ft 34.43 °N, 135.23 °E | Updated 16 minutes ago

Scattered Clouds
Scattered Clouds
82 °F
Feels Like 88 °F
N
5
Wind Variable Wind from SSE

Today
High -- | Low -- °F
--% Chance of Precip.
Yesterday
High -- | Low -- °F
Precip. -- in
5:23 AM 6:40 PM
Waning Crescent, 20% visible
Pressure 29.92 in
Visibility 6.2 miles
Clouds Few 1500 ft
Scattered Clouds 18000 ft
Heat Index 88 °F
Dew Point 73 °F
Humidity 74%
Rainfall 0.00 in
Snow Depth Not available.
UV 0 out of 12
Pollen Not available.
Air Quality Not available.
Flu Activity Not available.
METAR RJBB 201730Z 16004KT 9999 FEW015 SCT180 BKN/// 28/23 Q1013 NOSIG

More Conditions Fewer Conditions

Pressure 29.92 in
Visibility 6.2 miles
Clouds Few 1500 ft
Scattered Clouds 18000 ft
Heat Index 88 °F
Dew Point 73 °F
Humidity 74%
Rainfall 0.00 in
Snow Depth Not available.
UV 0 out of 12
Pollen Not available.
Air Quality Not available.
Flu Activity Not available.
METAR RJBB 201730Z 16004KT 9999 FEW015 SCT180 BKN/// 28/23 Q1013 NOSIG

More Conditions Fewer Conditions

10-Day Weather Forecast

Almanac

Astronomy

Aug. 21, 2014 Rise Set
Actual Time 5:23 AM JST 6:40 PM JST
Civil Twilight 4:57 AM JST 7:06 PM JST
Nautical Twilight 4:26 AM JST 7:37 PM JST
Astronomical Twilight 3:53 AM JST 8:10 PM JST
Moon 1:26 AM JST (8/21) 3:37 PM JST (8/21)
Length of Visible Light 14h 08m
Length of Day
13h 16m
Tomorrow will be 1m 56s shorter.
Waning Crescent, 20% of the Moon is Illuminated
Aug 20
Waning Crescent
Aug 25
New
Sep 2
First Quarter
Sep 8
Full
Sep 15
Last Quarter

Yesterday's Extremes

Country Highs Country Lows

Community

WunderPhotos

Upload Photos

1,745,699 photos uploaded!

WunderBlogs® & News

By Dr. Jeff Masters
Director of Meteorology, Weather Underground
By Kari Strenfel
Meteorologist, Weather Underground
By Christopher C. Burt
Weather Historian, Weather Underground
August 20, 2014
August 20, 2014
August 20, 2014

Nearby

Snow Depth

Not available.

Earthquake Activity

City Distance Mag. Time & Date
No recent earthquake activity has been reported nearby.
Minimum magnitude displayed is 2.5.

Coastal Water Temperatures

Place Temperature
No Stations Reporting

Nearby Weather Stations